Time;durP1;ratioP1;P1;durP2;ratioP2;P2;SDS_P1;SDS_P2;PMS_P1;PMS_P2;Temp;Humidity;BMP_temperature;BMP_pressure;BME280_temperature;BME280_humidity;BME280_pressure;Samples;Min_cycle;Max_cycle;Signal;HPM_P1;HPM_P2
2022/07/14 00:02:14;;;;;;;;;;;18.80;99.90;;;;;;8363557;28;19930;-75
2022/07/14 00:06:16;;;;;;;;;;;18.70;99.90;;;;;;8382047;28;20276;-75
2022/07/14 00:10:18;;;;;;;;;;;18.70;99.90;;;;;;8375970;28;19935;-75
2022/07/14 00:14:20;;;;;;;;;;;18.60;99.90;;;;;;8367443;28;20394;-75
2022/07/14 00:28:29;;;;;;;;;;;18.50;99.90;;;;;;8364905;28;20072;-75
2022/07/14 00:32:32;;;;;;;;;;;18.50;99.90;;;;;;8375273;28;19996;-75
2022/07/14 00:36:34;;;;;;;;;;;18.50;99.90;;;;;;8372971;28;19954;-75
2022/07/14 00:40:35;;;;;;;;;;;18.50;99.90;;;;;;8369791;28;19920;-75
2022/07/14 00:44:37;;;;;;;;;;;18.40;99.90;;;;;;8381996;28;19928;-76
2022/07/14 00:48:38;;;;;;;;;;;18.40;99.90;;;;;;8385472;28;19928;-75
2022/07/14 00:52:41;;;;;;;;;;;18.40;99.90;;;;;;8363973;28;19928;-75
2022/07/14 00:56:43;;;;;;;;;;;18.30;99.90;;;;;;8370847;28;20448;-75
2022/07/14 01:00:47;;;;;;;;;;;18.30;99.90;;;;;;8362564;28;21556;-75
2022/07/14 01:04:49;;;;;;;;;;;18.20;99.90;;;;;;8377507;28;19971;-75
2022/07/14 01:08:51;;;;;;;;;;;18.20;99.90;;;;;;8380521;28;19971;-75
2022/07/14 01:12:52;;;;;;;;;;;18.10;99.90;;;;;;8369191;28;19947;-75
2022/07/14 01:16:55;;;;;;;;;;;18.00;99.90;;;;;;8387082;28;19924;-75
2022/07/14 01:20:56;;;;;;;;;;;18.00;99.90;;;;;;8387064;28;19931;-75
2022/07/14 01:24:58;;;;;;;;;;;17.90;99.90;;;;;;8386498;28;19932;-75
2022/07/14 01:29:00;;;;;;;;;;;17.90;99.90;;;;;;8379628;28;19931;-75
2022/07/14 01:33:01;;;;;;;;;;;17.90;99.90;;;;;;8383630;28;20387;-75
2022/07/14 01:37:03;;;;;;;;;;;17.80;99.90;;;;;;8370754;28;20992;-75
2022/07/14 01:41:05;;;;;;;;;;;17.70;99.90;;;;;;8377011;28;19929;-75
2022/07/14 01:45:08;;;;;;;;;;;17.70;99.90;;;;;;8373503;28;19932;-76
2022/07/14 01:49:09;;;;;;;;;;;17.60;99.90;;;;;;8367889;28;20266;-75
2022/07/14 01:53:11;;;;;;;;;;;17.50;99.90;;;;;;8385773;28;20292;-75
2022/07/14 01:57:13;;;;;;;;;;;17.40;99.90;;;;;;8362822;28;19924;-75
2022/07/14 02:05:35;;;;;;;;;;;17.30;99.90;;;;;;8362914;28;20298;-75
2022/07/14 02:13:57;;;;;;;;;;;17.10;99.90;;;;;;8380253;28;19925;-75
2022/07/14 02:17:59;;;;;;;;;;;17.00;99.90;;;;;;8390314;28;19925;-75
2022/07/14 02:22:01;;;;;;;;;;;17.00;99.90;;;;;;8377097;28;20011;-75
2022/07/14 02:26:03;;;;;;;;;;;16.90;99.90;;;;;;8368645;28;19976;-75
2022/07/14 02:30:05;;;;;;;;;;;16.80;99.90;;;;;;8380896;28;20372;-75
2022/07/14 02:34:06;;;;;;;;;;;16.70;99.90;;;;;;8393593;28;19924;-75
2022/07/14 02:38:08;;;;;;;;;;;16.70;99.90;;;;;;8384815;28;19924;-75
2022/07/14 02:42:10;;;;;;;;;;;16.60;99.90;;;;;;8351541;28;19932;-76
2022/07/14 02:46:11;;;;;;;;;;;16.60;99.90;;;;;;8383684;28;19931;-75
2022/07/14 02:50:13;;;;;;;;;;;16.50;99.90;;;;;;8377273;28;20423;-76
2022/07/14 02:54:15;;;;;;;;;;;16.40;99.90;;;;;;8390931;28;19932;-75
2022/07/14 02:58:18;;;;;;;;;;;16.40;99.90;;;;;;8383380;28;19932;-75
2022/07/14 03:02:19;;;;;;;;;;;16.30;99.90;;;;;;8378640;28;20299;-75
2022/07/14 03:06:21;;;;;;;;;;;16.30;99.90;;;;;;8373836;28;20679;-75
2022/07/14 03:10:23;;;;;;;;;;;16.20;99.90;;;;;;8342204;28;19924;-75
2022/07/14 03:14:25;;;;;;;;;;;16.10;99.90;;;;;;8393223;28;19939;-75
2022/07/14 03:18:26;;;;;;;;;;;16.10;99.90;;;;;;8385314;28;19939;-75
2022/07/14 03:22:28;;;;;;;;;;;16.00;99.90;;;;;;8382814;28;19935;-75
2022/07/14 03:26:30;;;;;;;;;;;15.90;99.90;;;;;;8377051;28;19932;-75
2022/07/14 03:40:39;;;;;;;;;;;15.70;99.90;;;;;;8365610;28;19927;-75
2022/07/14 03:44:41;;;;;;;;;;;15.70;99.90;;;;;;8384614;28;19936;-75
2022/07/14 03:48:43;;;;;;;;;;;15.60;99.90;;;;;;8383410;28;19924;-75
2022/07/14 03:52:44;;;;;;;;;;;15.60;99.90;;;;;;8371943;28;19925;-75
2022/07/14 03:56:46;;;;;;;;;;;15.60;99.90;;;;;;8381842;28;19931;-75
2022/07/14 04:00:47;;;;;;;;;;;15.50;99.90;;;;;;8365397;28;19932;-75
2022/07/14 04:04:49;;;;;;;;;;;15.50;99.90;;;;;;8376848;28;20390;-76
2022/07/14 04:08:51;;;;;;;;;;;15.50;99.90;;;;;;8369156;28;19928;-75
2022/07/14 04:12:52;;;;;;;;;;;15.50;99.90;;;;;;8363836;28;19925;-75
2022/07/14 04:16:54;;;;;;;;;;;15.50;99.90;;;;;;8369860;28;19936;-75
2022/07/14 04:20:56;;;;;;;;;;;15.50;99.90;;;;;;8379792;28;20375;-76
2022/07/14 04:24:58;;;;;;;;;;;15.60;99.90;;;;;;8370470;28;20338;-76
2022/07/14 04:28:59;;;;;;;;;;;15.60;99.90;;;;;;8361218;28;19929;-76
2022/07/14 04:33:01;;;;;;;;;;;15.60;99.90;;;;;;8376563;28;19935;-75
2022/07/14 04:37:03;;;;;;;;;;;15.60;99.90;;;;;;8381850;28;19939;-75
2022/07/14 04:41:04;;;;;;;;;;;15.70;99.90;;;;;;8372514;28;20291;-75
2022/07/14 04:45:07;;;;;;;;;;;15.80;99.90;;;;;;8365275;28;19932;-75
2022/07/14 04:53:29;;;;;;;;;;;15.90;99.90;;;;;;8374936;28;19932;-75
2022/07/14 04:57:30;;;;;;;;;;;15.90;99.90;;;;;;8388526;28;19924;-75
2022/07/14 05:01:34;;;;;;;;;;;16.00;99.90;;;;;;8378586;28;19933;-75
2022/07/14 05:05:35;;;;;;;;;;;16.00;99.90;;;;;;8382877;28;19928;-75
2022/07/14 05:09:38;;;;;;;;;;;16.10;99.90;;;;;;8378869;28;20372;-75
2022/07/14 05:13:39;;;;;;;;;;;16.20;99.90;;;;;;8382640;28;19965;-75
2022/07/14 05:17:41;;;;;;;;;;;16.30;99.90;;;;;;8395463;28;19931;-75
2022/07/14 05:21:44;;;;;;;;;;;16.40;99.90;;;;;;8368035;28;19932;-75
2022/07/14 05:25:45;;;;;;;;;;;16.50;99.90;;;;;;8371292;28;19924;-75
2022/07/14 05:29:47;;;;;;;;;;;16.50;99.90;;;;;;8377780;28;20979;-75
2022/07/14 05:33:49;;;;;;;;;;;16.60;99.90;;;;;;8379872;28;19928;-75
2022/07/14 05:37:50;;;;;;;;;;;16.70;99.90;;;;;;8385166;28;19935;-75
2022/07/14 05:41:52;;;;;;;;;;;16.80;99.90;;;;;;8392362;28;19930;-75
2022/07/14 05:45:54;;;;;;;;;;;16.90;99.90;;;;;;8376474;28;19924;-75
2022/07/14 05:49:55;;;;;;;;;;;17.10;99.90;;;;;;8383975;28;20394;-74
2022/07/14 05:53:57;;;;;;;;;;;17.30;99.90;;;;;;8358239;28;20417;-75
2022/07/14 05:57:59;;;;;;;;;;;17.40;99.90;;;;;;8357053;28;19948;-75
2022/07/14 06:02:01;;;;;;;;;;;17.60;99.90;;;;;;8362909;28;19940;-76
2022/07/14 06:06:04;;;;;;;;;;;17.70;99.90;;;;;;8347911;28;19931;-75
2022/07/14 06:10:09;;;;;;;;;;;17.80;99.90;;;;;;8376941;28;19941;-76
2022/07/14 06:14:11;;;;;;;;;;;17.90;99.90;;;;;;8374784;28;19924;-76
2022/07/14 06:18:12;;;;;;;;;;;18.00;99.90;;;;;;8385783;28;19928;-76
2022/07/14 06:22:14;;;;;;;;;;;18.10;99.90;;;;;;8389705;28;19939;-76
2022/07/14 06:26:16;;;;;;;;;;;18.20;99.90;;;;;;8371534;28;19963;-76
2022/07/14 06:30:18;;;;;;;;;;;18.30;99.90;;;;;;8370582;28;19928;-75
2022/07/14 06:34:19;;;;;;;;;;;18.40;99.90;;;;;;8369824;28;19928;-76
2022/07/14 06:38:21;;;;;;;;;;;18.50;99.90;;;;;;8368624;28;19932;-76
2022/07/14 06:42:23;;;;;;;;;;;18.60;99.90;;;;;;8379468;28;19928;-76
2022/07/14 06:46:24;;;;;;;;;;;18.60;99.90;;;;;;8364730;28;19932;-76
2022/07/14 06:50:26;;;;;;;;;;;18.70;99.90;;;;;;8375559;28;19968;-76
2022/07/14 06:54:28;;;;;;;;;;;18.70;99.90;;;;;;8362177;28;19931;-76
2022/07/14 06:58:30;;;;;;;;;;;18.80;99.90;;;;;;8361567;28;19939;-76
2022/07/14 07:02:33;;;;;;;;;;;18.90;99.90;;;;;;8353510;28;19947;-77
2022/07/14 07:06:43;;;;;;;;;;;19.00;99.90;;;;;;8371419;28;19925;-76
2022/07/14 07:10:45;;;;;;;;;;;19.10;99.90;;;;;;8372787;28;20283;-76
2022/07/14 07:14:47;;;;;;;;;;;19.20;99.90;;;;;;8365895;28;19936;-76
2022/07/14 07:18:48;;;;;;;;;;;19.30;99.90;;;;;;8374547;28;20519;-76
2022/07/14 07:22:50;;;;;;;;;;;19.30;99.90;;;;;;8370416;28;20409;-76
2022/07/14 07:26:52;;;;;;;;;;;19.40;99.90;;;;;;8370678;28;20399;-76
2022/07/14 07:30:53;;;;;;;;;;;19.40;99.90;;;;;;8361438;28;20380;-76
2022/07/14 07:34:55;;;;;;;;;;;19.40;99.90;;;;;;8370462;28;19982;-76
2022/07/14 07:38:57;;;;;;;;;;;19.50;99.90;;;;;;8370004;28;19929;-76
2022/07/14 07:42:59;;;;;;;;;;;19.60;99.90;;;;;;8356540;28;19929;-76
2022/07/14 07:47:00;;;;;;;;;;;19.60;99.90;;;;;;8368996;28;19931;-76
2022/07/14 07:51:02;;;;;;;;;;;19.50;99.90;;;;;;8370782;28;19928;-76
2022/07/14 07:55:09;;;;;;;;;;;19.60;99.90;;;;;;8371975;28;19948;-76
2022/07/14 07:59:20;;;;;;;;;;;19.60;99.90;;;;;;8372020;28;19933;-76
2022/07/14 08:03:22;;;;;;;;;;;19.70;99.90;;;;;;8369580;28;19924;-76
2022/07/14 08:07:24;;;;;;;;;;;19.70;99.90;;;;;;8368468;28;19930;-76
2022/07/14 08:11:25;;;;;;;;;;;19.80;99.90;;;;;;8369189;28;19957;-76
2022/07/14 08:15:27;;;;;;;;;;;19.80;99.90;;;;;;8356706;28;19936;-76
2022/07/14 08:19:29;;;;;;;;;;;19.80;99.90;;;;;;8370791;28;19924;-76
2022/07/14 08:23:31;;;;;;;;;;;19.90;99.90;;;;;;8369953;28;19939;-76
2022/07/14 08:27:33;;;;;;;;;;;20.00;99.90;;;;;;8363889;28;19924;-76
2022/07/14 08:31:34;;;;;;;;;;;20.10;99.90;;;;;;8354271;28;19925;-76
2022/07/14 08:35:42;;;;;;;;;;;20.20;99.90;;;;;;8364566;28;19935;-76
2022/07/14 08:39:44;;;;;;;;;;;20.20;99.90;;;;;;8372199;28;19982;-76
2022/07/14 08:43:47;;;;;;;;;;;20.30;99.90;;;;;;8384599;28;19924;-76
2022/07/14 08:47:50;;;;;;;;;;;20.30;99.90;;;;;;8357312;28;19933;-76
2022/07/14 08:51:52;;;;;;;;;;;20.40;99.90;;;;;;8371960;28;19925;-76
2022/07/14 08:55:54;;;;;;;;;;;20.40;99.90;;;;;;8384436;28;19925;-76
2022/07/14 08:59:55;;;;;;;;;;;20.50;99.90;;;;;;8369493;28;19940;-76
2022/07/14 09:03:59;;;;;;;;;;;20.60;99.90;;;;;;8368595;28;20524;-76
2022/07/14 09:08:06;;;;;;;;;;;20.60;99.90;;;;;;8368292;28;20379;-76
2022/07/14 09:12:08;;;;;;;;;;;20.60;99.90;;;;;;8357963;28;19924;-76
2022/07/14 09:16:17;;;;;;;;;;;20.60;99.90;;;;;;8367173;28;19925;-76
2022/07/14 09:20:20;;;;;;;;;;;20.70;99.90;;;;;;8371109;28;19946;-76
2022/07/14 09:24:22;;;;;;;;;;;20.60;99.90;;;;;;8368482;28;19932;-76
2022/07/14 09:28:27;;;;;;;;;;;20.50;99.90;;;;;;8367033;28;19924;-77
2022/07/14 09:32:44;;;;;;;;;;;20.40;99.90;;;;;;8370648;28;19935;-76
2022/07/14 09:36:45;;;;;;;;;;;20.40;99.90;;;;;;8367431;28;20387;-76
2022/07/14 09:40:48;;;;;;;;;;;20.40;99.90;;;;;;8373831;28;19928;-76
2022/07/14 09:45:06;;;;;;;;;;;20.40;99.90;;;;;;8374557;28;19929;-76
2022/07/14 09:49:08;;;;;;;;;;;20.60;99.90;;;;;;8374173;28;20332;-76
2022/07/14 09:53:22;;;;;;;;;;;20.70;99.90;;;;;;8373579;28;19924;-76
2022/07/14 09:57:26;;;;;;;;;;;20.90;99.90;;;;;;8373603;28;19925;-76
2022/07/14 10:01:28;;;;;;;;;;;21.00;99.90;;;;;;8363549;28;20278;-76
2022/07/14 10:05:31;;;;;;;;;;;21.20;99.90;;;;;;8374442;28;19932;-76
2022/07/14 10:09:37;;;;;;;;;;;21.30;99.90;;;;;;8373108;28;20552;-76
2022/07/14 10:13:39;;;;;;;;;;;21.30;99.90;;;;;;8374560;28;19941;-76
2022/07/14 10:17:42;;;;;;;;;;;21.40;99.90;;;;;;8373516;28;20352;-76
2022/07/14 10:21:45;;;;;;;;;;;21.50;99.90;;;;;;8374390;28;19925;-76
2022/07/14 10:25:48;;;;;;;;;;;21.60;99.90;;;;;;8372229;28;19928;-75
2022/07/14 10:29:51;;;;;;;;;;;21.70;99.90;;;;;;8375987;28;19928;-76
2022/07/14 10:34:11;;;;;;;;;;;21.70;99.90;;;;;;8374335;28;19929;-76
2022/07/14 10:38:13;;;;;;;;;;;21.70;99.90;;;;;;8372175;28;19924;-76
2022/07/14 10:42:20;;;;;;;;;;;21.80;99.90;;;;;;8367895;28;20837;-76
2022/07/14 10:46:33;;;;;;;;;;;21.80;99.90;;;;;;8367522;28;19920;-74
2022/07/14 10:50:35;;;;;;;;;;;21.90;99.90;;;;;;8381047;28;19962;-74
2022/07/14 10:54:37;;;;;;;;;;;21.80;99.90;;;;;;8366345;28;20283;-74
2022/07/14 10:58:44;;;;;;;;;;;21.80;99.90;;;;;;8369639;28;19937;-74
2022/07/14 11:02:45;;;;;;;;;;;21.90;99.90;;;;;;8363502;28;19981;-74
2022/07/14 11:06:47;;;;;;;;;;;22.00;99.90;;;;;;8365616;28;19924;-75
2022/07/14 11:10:49;;;;;;;;;;;22.00;99.90;;;;;;8361215;28;19932;-75
2022/07/14 11:14:51;;;;;;;;;;;22.10;99.90;;;;;;8355425;28;19920;-74
2022/07/14 11:19:12;;;;;;;;;;;22.20;99.90;;;;;;8363103;28;20232;-74
2022/07/14 11:23:15;;;;;;;;;;;22.20;99.90;;;;;;8366482;28;19927;-75
2022/07/14 11:27:33;;;;;;;;;;;22.30;99.90;;;;;;8369318;28;19921;-74
2022/07/14 11:31:45;;;;;;;;;;;22.30;99.90;;;;;;8367759;28;19920;-74
2022/07/14 11:40:47;;;;;;;;;;;22.50;99.90;;;;;;8367971;28;19928;-75
2022/07/14 11:44:51;;;;;;;;;;;22.60;99.90;;;;;;8368176;28;19924;-76
2022/07/14 11:48:54;;;;;;;;;;;22.70;99.90;;;;;;8383294;28;19924;-74
2022/07/14 11:52:56;;;;;;;;;;;22.70;99.90;;;;;;8381041;28;20077;-75
2022/07/14 11:57:08;;;;;;;;;;;22.70;99.90;;;;;;8371122;28;19924;-74
2022/07/14 12:01:12;;;;;;;;;;;22.70;99.90;;;;;;8368731;28;19924;-74
2022/07/14 12:05:14;;;;;;;;;;;22.80;99.90;;;;;;8369598;28;20367;-75
2022/07/14 12:09:27;;;;;;;;;;;22.80;99.90;;;;;;8367456;28;19932;-75
2022/07/14 12:13:50;;;;;;;;;;;22.80;99.90;;;;;;8369992;28;19929;-75
2022/07/14 12:17:53;;;;;;;;;;;22.80;99.90;;;;;;8372915;28;19920;-75
2022/07/14 12:22:03;;;;;;;;;;;22.90;99.90;;;;;;8367002;28;19920;-75
2022/07/14 12:26:04;;;;;;;;;;;22.90;99.90;;;;;;8359366;28;19924;-75
2022/07/14 12:30:07;;;;;;;;;;;22.90;99.90;;;;;;8370710;28;19920;-75
2022/07/14 12:34:09;;;;;;;;;;;22.80;99.90;;;;;;8371238;28;20304;-74
2022/07/14 12:38:12;;;;;;;;;;;22.80;99.90;;;;;;8369097;28;20356;-75
2022/07/14 12:42:18;;;;;;;;;;;22.80;99.90;;;;;;8370121;28;19924;-75
2022/07/14 12:46:22;;;;;;;;;;;22.80;99.90;;;;;;8355095;28;19931;-75
2022/07/14 12:50:25;;;;;;;;;;;22.90;99.90;;;;;;8368848;28;19963;-76
2022/07/14 12:54:34;;;;;;;;;;;22.90;99.90;;;;;;8367864;28;21046;-75
2022/07/14 12:58:56;;;;;;;;;;;23.00;99.90;;;;;;8370569;28;19969;-75
2022/07/14 13:03:12;;;;;;;;;;;23.00;99.90;;;;;;8369143;28;19947;-75
2022/07/14 13:07:14;;;;;;;;;;;23.10;99.90;;;;;;8368486;28;19925;-75
2022/07/14 13:11:16;;;;;;;;;;;23.10;99.90;;;;;;8368315;28;19986;-75
2022/07/14 13:15:19;;;;;;;;;;;23.10;99.90;;;;;;8368784;28;19921;-75
2022/07/14 13:19:22;;;;;;;;;;;23.00;99.90;;;;;;8375392;28;19925;-75
2022/07/14 13:23:27;;;;;;;;;;;22.80;99.90;;;;;;8390658;28;20394;-75
2022/07/14 13:27:29;;;;;;;;;;;22.60;99.90;;;;;;8374070;28;20275;-75
2022/07/14 13:31:31;;;;;;;;;;;22.50;99.90;;;;;;8375320;28;19920;-74
2022/07/14 13:35:34;;;;;;;;;;;22.50;99.90;;;;;;8378280;28;20279;-75
2022/07/14 13:39:36;;;;;;;;;;;22.60;99.90;;;;;;8373359;28;19928;-75
2022/07/14 13:43:40;;;;;;;;;;;22.70;99.90;;;;;;8360926;28;19925;-74
2022/07/14 13:47:42;;;;;;;;;;;22.60;99.90;;;;;;8372706;28;20424;-75
2022/07/14 13:56:05;;;;;;;;;;;22.60;99.90;;;;;;8372411;28;19925;-75
2022/07/14 14:00:07;;;;;;;;;;;22.60;99.90;;;;;;8371754;28;20654;-75
2022/07/14 14:04:09;;;;;;;;;;;22.60;99.90;;;;;;8360463;28;19968;-75
2022/07/14 14:08:23;;;;;;;;;;;22.60;99.90;;;;;;8361683;28;19939;-75
2022/07/14 14:12:25;;;;;;;;;;;22.60;99.90;;;;;;8372959;28;20038;-75
2022/07/14 14:16:26;;;;;;;;;;;22.60;99.90;;;;;;8371859;28;19931;-74
2022/07/14 14:20:28;;;;;;;;;;;22.60;99.90;;;;;;8360813;28;19970;-75
2022/07/14 14:24:30;;;;;;;;;;;22.60;99.90;;;;;;8372388;28;19933;-74
2022/07/14 14:28:32;;;;;;;;;;;22.70;99.90;;;;;;8371330;28;19924;-74
2022/07/14 14:32:34;;;;;;;;;;;22.80;99.90;;;;;;8370877;28;19932;-74
2022/07/14 14:36:35;;;;;;;;;;;22.90;99.90;;;;;;8370603;28;20054;-74
2022/07/14 14:40:38;;;;;;;;;;;23.10;99.90;;;;;;8374285;28;19932;-75
2022/07/14 14:44:40;;;;;;;;;;;23.30;99.90;;;;;;8372775;28;19925;-75
2022/07/14 14:48:42;;;;;;;;;;;23.40;99.90;;;;;;8370478;28;19925;-75
2022/07/14 14:52:48;;;;;;;;;;;23.30;99.90;;;;;;8372052;28;19932;-75
2022/07/14 14:56:50;;;;;;;;;;;23.30;99.90;;;;;;8363372;28;19932;-74
2022/07/14 15:00:51;;;;;;;;;;;23.20;99.90;;;;;;8370863;28;20364;-75
2022/07/14 15:04:54;;;;;;;;;;;23.10;99.90;;;;;;8375258;28;19928;-75
2022/07/14 15:08:56;;;;;;;;;;;23.30;99.90;;;;;;8386884;28;19931;-75
2022/07/14 15:12:57;;;;;;;;;;;23.40;99.90;;;;;;8367830;28;19946;-75
2022/07/14 15:17:06;;;;;;;;;;;23.40;99.90;;;;;;8371883;28;19935;-74
2022/07/14 15:21:08;;;;;;;;;;;23.50;99.90;;;;;;8370039;28;19925;-75
2022/07/14 15:25:09;;;;;;;;;;;23.40;99.90;;;;;;8370228;28;19936;-75
2022/07/14 15:29:11;;;;;;;;;;;23.40;99.90;;;;;;8354844;28;19936;-75
2022/07/14 15:33:13;;;;;;;;;;;23.30;99.90;;;;;;8385866;28;19931;-74
2022/07/14 15:37:15;;;;;;;;;;;23.30;99.90;;;;;;8367563;28;20383;-75
2022/07/14 15:41:16;;;;;;;;;;;23.40;99.90;;;;;;8366821;28;19935;-75
2022/07/14 15:45:19;;;;;;;;;;;23.60;99.90;;;;;;8360276;28;19925;-75
2022/07/14 15:49:21;;;;;;;;;;;23.80;99.90;;;;;;8364967;28;19983;-75
2022/07/14 15:53:22;;;;;;;;;;;23.90;99.90;;;;;;8362191;28;19925;-75
2022/07/14 15:57:24;;;;;;;;;;;24.20;99.90;;;;;;8359525;28;19932;-75
2022/07/14 16:01:27;;;;;;;2.10;0.70;;;24.60;99.90;;;;;;8361099;28;19999;-75
2022/07/14 16:05:29;;;;;;;1.73;0.65;;;25.10;99.90;;;;;;8359215;28;19982;-75
2022/07/14 16:09:30;;;;;;;2.38;0.80;;;25.60;99.90;;;;;;8359817;28;20044;-75
2022/07/14 16:13:32;;;;;;;2.38;0.90;;;25.90;99.90;;;;;;8361507;28;20412;-74
2022/07/14 16:17:35;;;;;;;0.85;0.70;;;26.30;99.90;;;;;;8355870;28;19935;-75
2022/07/14 16:21:36;;;;;;;;;;;26.40;99.90;;;;;;8363022;28;19920;-75
2022/07/14 16:25:38;;;;;;;;;;;26.60;99.90;;;;;;8371041;28;19951;-75
2022/07/14 16:29:40;;;;;;;;;;;26.70;99.90;;;;;;8377851;28;20406;-75
2022/07/14 16:33:42;;;;;;;;;;;26.70;99.90;;;;;;8359587;28;20312;-75
2022/07/14 16:37:43;;;;;;;;;;;26.80;99.90;;;;;;8354516;28;19921;-75
2022/07/14 16:41:45;;;;;;;;;;;26.90;99.90;;;;;;8342917;28;20296;-75
2022/07/14 16:45:47;;;;;;;;;;;26.90;99.90;;;;;;8374098;28;19924;-75
2022/07/14 16:49:48;;;;;;;;;;;27.00;99.90;;;;;;8367717;28;19928;-75
2022/07/14 16:53:50;;;;;;;;;;;27.00;99.90;;;;;;8361617;28;19975;-75
2022/07/14 16:57:52;;;;;;;;;;;26.90;99.90;;;;;;8343418;28;19940;-75
2022/07/14 17:01:54;;;;;;;;;;;26.70;99.90;;;;;;8367085;28;19920;-75
2022/07/14 17:10:16;;;;;;;;;;;26.70;99.90;;;;;;8361049;28;20386;-75
2022/07/14 17:14:19;;;;;;;;;;;26.40;99.90;;;;;;8365136;28;20224;-75
2022/07/14 17:18:21;;;;;;;;;;;26.20;99.90;;;;;;8363691;28;19925;-75
2022/07/14 17:22:22;;;;;;;;;;;25.90;99.90;;;;;;8381980;28;21459;-75
2022/07/14 17:26:24;;;;;;;;;;;25.70;99.90;;;;;;8362316;28;19931;-75
2022/07/14 17:30:26;;;;;;;;;;;25.40;99.90;;;;;;8386877;28;20371;-75
2022/07/14 17:34:27;;;;;;;;;;;25.10;99.90;;;;;;8373899;28;19934;-75
2022/07/14 17:38:29;;;;;;;;;;;24.80;99.90;;;;;;8371564;28;19928;-75
2022/07/14 17:42:31;;;;;;;;;;;24.60;99.90;;;;;;8361285;28;19921;-75
2022/07/14 17:46:33;;;;;;;3.08;1.10;;;24.50;99.90;;;;;;8376196;28;19974;-75
2022/07/14 17:50:34;;;;;;;3.33;1.13;;;24.40;99.90;;;;;;8364013;28;20056;-75
2022/07/14 17:54:38;;;;;;;2.65;1.00;;;24.30;99.90;;;;;;8360861;28;20051;-75
2022/07/14 17:58:41;;;;;;;3.20;1.10;;;24.10;99.90;;;;;;8379274;28;20134;-75
2022/07/14 18:02:43;;;;;;;;;;;24.00;99.90;;;;;;8365056;28;19924;-75
2022/07/14 18:06:45;;;;;;;;;;;24.00;99.90;;;;;;8349608;28;19988;-75
2022/07/14 18:10:46;;;;;;;;;;;23.90;99.90;;;;;;8366459;28;19921;-75
2022/07/14 18:14:48;;;;;;;;;;;23.80;99.90;;;;;;8366569;28;20371;-74
2022/07/14 18:18:51;;;;;;;;;;;23.60;99.90;;;;;;8367392;28;19936;-75
2022/07/14 18:22:53;;;;;;;;;;;23.30;99.90;;;;;;8361702;28;19956;-75
2022/07/14 18:26:57;;;;;;;;;;;23.20;99.90;;;;;;8361397;28;19920;-75
2022/07/14 18:30:58;;;;;;;;;;;23.00;99.90;;;;;;8371354;28;19924;-75
2022/07/14 18:35:00;;;;;;;;;;;22.90;99.90;;;;;;8373738;28;19924;-75
2022/07/14 18:39:02;;;;;;;;;;;22.80;99.90;;;;;;8367044;28;19921;-74
2022/07/14 18:43:04;;;;;;;;;;;22.80;99.90;;;;;;8358762;28;19931;-75
2022/07/14 18:47:06;;;;;;;;;;;22.60;99.90;;;;;;8363874;28;19974;-75
2022/07/14 18:51:08;;;;;;;;;;;22.50;99.90;;;;;;8365873;28;19932;-75
2022/07/14 18:55:13;;;;;;;;;;;22.40;99.90;;;;;;8366822;28;20864;-75
2022/07/14 18:59:14;;;;;;;;;;;22.40;99.90;;;;;;8364074;28;19920;-74
2022/07/14 19:03:16;;;;;;;;;;;22.20;99.90;;;;;;8363101;28;19939;-75
2022/07/14 19:07:18;;;;;;;;;;;22.10;99.90;;;;;;8359786;28;19970;-74
2022/07/14 19:11:19;;;;;;;;;;;22.00;99.90;;;;;;8371793;28;20372;-74
2022/07/14 19:15:21;;;;;;;;;;;21.90;99.90;;;;;;8361376;28;20320;-75
2022/07/14 19:19:23;;;;;;;;;;;21.90;99.90;;;;;;8360919;28;19921;-75
2022/07/14 19:23:27;;;;;;;;;;;21.90;99.90;;;;;;8370575;28;20265;-75
2022/07/14 19:27:29;;;;;;;;;;;21.80;99.90;;;;;;8355145;28;20390;-74
2022/07/14 19:31:31;;;;;;;;;;;21.70;99.90;;;;;;8360708;28;19947;-75
2022/07/14 19:35:34;;;;;;;;;;;21.60;99.90;;;;;;8358093;28;19955;-75
2022/07/14 19:39:35;;;;;;;;;;;21.50;99.90;;;;;;8356203;28;19932;-75
2022/07/14 19:43:37;;;;;;;;;;;21.40;99.90;;;;;;8356531;28;20398;-75
2022/07/14 19:47:39;;;;;;;;;;;21.30;99.90;;;;;;8355457;28;19928;-75
2022/07/14 19:51:41;;;;;;;;;;;21.20;99.90;;;;;;8361593;28;19929;-75
2022/07/14 19:55:43;;;;;;;;;;;21.10;99.90;;;;;;8368203;28;19943;-75
2022/07/14 19:59:44;;;;;;;;;;;21.00;99.90;;;;;;8364675;28;19932;-75
2022/07/14 20:03:46;;;;;;;;;;;21.00;99.90;;;;;;8367012;28;19932;-75
2022/07/14 20:07:49;;;;;;;4.85;1.40;;;20.90;99.90;;;;;;8361213;28;19944;-75
2022/07/14 20:11:50;;;;;;;;;;;20.80;99.90;;;;;;8360206;28;19968;-74
2022/07/14 20:15:52;;;;;;;;;;;20.80;99.90;;;;;;8351807;28;19928;-74
2022/07/14 20:19:54;;;;;;;;;;;20.70;99.90;;;;;;8336483;28;19942;-74
2022/07/14 20:23:56;;;;;;;;;;;20.60;99.90;;;;;;8357160;28;20635;-75
2022/07/14 20:36:38;;;;;;;;;;;20.40;99.90;;;;;;8355905;28;20272;-75
2022/07/14 20:40:40;;;;;;;;;;;20.30;99.90;;;;;;8362731;28;20375;-74
2022/07/14 20:44:42;;;;;;;;;;;20.30;99.90;;;;;;8355917;28;19920;-75
2022/07/14 20:48:43;;;;;;;;;;;20.10;99.90;;;;;;8357855;28;19932;-74
2022/07/14 20:52:45;;;;;;;;;;;20.00;99.90;;;;;;8356555;28;19935;-74
2022/07/14 20:56:47;;;;;;;;;;;19.90;99.90;;;;;;8361663;28;19924;-74
2022/07/14 21:00:48;;;;;;;;;;;19.80;99.90;;;;;;8344022;28;20458;-74
2022/07/14 21:05:11;;;;;;;;;;;19.80;99.90;;;;;;8374809;28;20400;-74
2022/07/14 21:09:13;;;;;;;;;;;19.70;99.90;;;;;;8373032;28;19920;-74
2022/07/14 21:13:15;;;;;;;;;;;19.70;99.90;;;;;;8367307;28;19928;-74
2022/07/14 21:17:17;;;;;;;;;;;19.60;99.90;;;;;;8381581;28;19920;-74
2022/07/14 21:21:19;;;;;;;;;;;19.60;99.90;;;;;;8374438;28;20002;-74
2022/07/14 21:25:20;;;;;;;;;;;19.50;99.90;;;;;;8374960;28;19924;-74
2022/07/14 21:29:22;;;;;;;;;;;19.50;99.90;;;;;;8372396;28;20287;-73
2022/07/14 21:33:24;;;;;;;;;;;19.40;99.90;;;;;;8387747;28;19928;-74
2022/07/14 21:37:25;;;;;;;;;;;19.40;99.90;;;;;;8375219;28;19932;-74
2022/07/14 21:41:27;;;;;;;;;;;19.30;99.90;;;;;;8381587;28;19921;-74
2022/07/14 21:45:28;;;;;;;;;;;19.30;99.90;;;;;;8376969;28;19964;-74
2022/07/14 21:49:30;;;;;;;;;;;19.20;99.90;;;;;;8382949;28;19953;-74
2022/07/14 21:53:32;;;;;;;;;;;19.20;99.90;;;;;;8387226;28;19921;-74
2022/07/14 21:57:33;;;;;;;;;;;19.10;99.90;;;;;;8386799;28;19920;-74
2022/07/14 22:01:39;;;;;;;;;;;19.10;99.90;;;;;;8366658;28;19940;-74
2022/07/14 22:05:43;;;;;;;;;;;19.10;99.90;;;;;;8389132;28;19930;-74
2022/07/14 22:09:44;;;;;;;;;;;19.10;99.90;;;;;;8358052;28;19952;-74
2022/07/14 22:13:46;;;;;;;;;;;19.00;99.90;;;;;;8377326;28;19936;-74
2022/07/14 22:17:48;;;;;;;;;;;19.00;99.90;;;;;;8360630;28;20284;-74
2022/07/14 22:22:05;;;;;;;;;;;18.90;99.90;;;;;;8385173;28;19920;-74
2022/07/14 22:26:12;;;;;;;;;;;18.90;99.90;;;;;;8378508;28;19921;-74
2022/07/14 22:30:14;;;;;;;;;;;18.90;99.90;;;;;;8362786;28;19927;-74
2022/07/14 22:34:16;;;;;;;;;;;18.90;99.90;;;;;;8384365;28;19924;-74
2022/07/14 22:38:17;;;;;;;;;;;18.90;99.90;;;;;;8377227;28;19931;-74
2022/07/14 22:42:20;;;;;;;;;;;18.80;99.90;;;;;;8381542;28;19920;-74
2022/07/14 22:46:22;;;;;;;;;;;18.80;99.90;;;;;;8375357;28;19924;-74
2022/07/14 22:50:23;;;;;;;;;;;18.70;99.90;;;;;;8383455;28;19925;-73
2022/07/14 22:54:27;;;;;;;;;;;18.60;99.90;;;;;;8379521;28;19924;-74
2022/07/14 22:58:28;;;;;;;;;;;18.60;99.90;;;;;;8381844;28;19927;-74
2022/07/14 23:02:31;;;;;;;;;;;18.50;99.90;;;;;;8377671;28;20015;-74
2022/07/14 23:06:33;;;;;;;;;;;18.50;99.90;;;;;;8378815;28;19924;-74
2022/07/14 23:10:34;;;;;;;;;;;18.40;99.90;;;;;;8388333;28;19920;-74
2022/07/14 23:15:30;;;;;;;;;;;18.40;99.90;;;;;;8378575;28;19920;-74
2022/07/14 23:18:58;;;;;;;;;;;18.30;99.90;;;;;;8383182;28;20394;-74
2022/07/14 23:23:02;;;;;;;;;;;18.20;99.90;;;;;;8379981;28;19978;-74
2022/07/14 23:27:03;;;;;;;;;;;18.20;99.90;;;;;;8378396;28;19927;-74
2022/07/14 23:31:05;;;;;;;;;;;18.10;99.90;;;;;;8377156;28;20288;-74
2022/07/14 23:35:08;;;;;;;;;;;18.10;99.90;;;;;;8378213;28;19967;-73
2022/07/14 23:39:10;;;;;;;;;;;18.00;99.90;;;;;;8382452;28;19938;-73
2022/07/14 23:43:12;;;;;;;;;;;17.90;99.90;;;;;;8384355;28;19927;-74
2022/07/14 23:47:14;;;;;;;;;;;17.80;99.90;;;;;;8376503;28;19921;-74
2022/07/14 23:51:15;;;;;;;;;;;17.70;99.90;;;;;;8357324;28;20360;-73
2022/07/14 23:55:17;;;;;;;;;;;17.70;99.90;;;;;;8378138;28;19935;-74
2022/07/14 23:59:20;;;;;;;;;;;17.60;99.90;;;;;;8390145;28;19920;-73
